Time;durP1;ratioP1;P1;durP2;ratioP2;P2;SDS_P1;SDS_P2;PMS_P1;PMS_P2;Temp;Humidity;BMP_temperature;BMP_pressure;BME280_temperature;BME280_humidity;BME280_pressure;Samples;Min_cycle;Max_cycle;Signal;HPM_P1;HPM_P2
2022/03/11 00:01:01;;;;;;;14.13;7.07;;;;;;;;;;5055871;28;20029;-70
2022/03/11 00:03:46;;;;;;;11.40;6.40;;;;;;;;;;5040306;28;20042;-70
2022/03/11 00:06:32;;;;;;;11.20;6.10;;;;;;;;;;5050309;28;20061;-70
2022/03/11 00:09:17;;;;;;;13.85;6.35;;;;;;;;;;5036990;28;20029;-69
2022/03/11 00:12:03;;;;;;;11.50;6.18;;;;;;;;;;5060949;28;20024;-70
2022/03/11 00:14:48;;;;;;;13.40;7.30;;;;;;;;;;5055247;28;20072;-64
2022/03/11 00:17:34;;;;;;;11.43;6.45;;;;;;;;;;5055582;28;20216;-69
2022/03/11 00:20:20;;;;;;;11.70;6.03;;;;;;;;;;5054383;28;20025;-70
2022/03/11 00:23:06;;;;;;;11.93;6.72;;;;;;;;;;5055580;28;20437;-69
2022/03/11 00:25:51;;;;;;;10.90;5.97;;;;;;;;;;5056896;28;20028;-69
2022/03/11 00:28:37;;;;;;;14.13;6.55;;;;;;;;;;5055137;28;20332;-70
2022/03/11 00:31:22;;;;;;;11.73;5.85;;;;;;;;;;5053971;28;20036;-71
2022/03/11 00:34:08;;;;;;;12.63;6.32;;;;;;;;;;5054965;28;20368;-70
2022/03/11 00:36:53;;;;;;;15.07;5.95;;;;;;;;;;5048375;28;20049;-65
2022/03/11 00:39:38;;;;;;;12.40;6.35;;;;;;;;;;5048960;28;20506;-65
2022/03/11 00:42:24;;;;;;;9.88;5.30;;;;;;;;;;5023856;28;20021;-66
2022/03/11 00:45:10;;;;;;;11.23;6.07;;;;;;;;;;5047885;28;20048;-66
2022/03/11 00:47:56;;;;;;;12.02;6.30;;;;;;;;;;5054796;28;20036;-67
2022/03/11 00:50:41;;;;;;;10.68;5.60;;;;;;;;;;5035213;28;20040;-73
2022/03/11 00:53:27;;;;;;;10.23;5.50;;;;;;;;;;5054792;28;20028;-68
2022/03/11 00:56:13;;;;;;;11.35;5.53;;;;;;;;;;5039613;28;20074;-64
2022/03/11 00:58:58;;;;;;;11.55;6.70;;;;;;;;;;5054324;28;20479;-63
2022/03/11 01:01:43;;;;;;;9.70;5.57;;;;;;;;;;5044751;28;20189;-64
2022/03/11 01:04:28;;;;;;;9.80;5.85;;;;;;;;;;5046844;28;20032;-67
2022/03/11 01:07:14;;;;;;;10.65;5.88;;;;;;;;;;5052997;28;20087;-65
2022/03/11 01:09:59;;;;;;;10.82;5.70;;;;;;;;;;5068261;28;20182;-70
2022/03/11 01:12:45;;;;;;;12.38;6.75;;;;;;;;;;5053332;28;20036;-71
2022/03/11 01:15:30;;;;;;;9.52;5.82;;;;;;;;;;5043195;28;20021;-71
2022/03/11 01:18:15;;;;;;;12.68;6.40;;;;;;;;;;5056286;28;20109;-70
2022/03/11 01:21:01;;;;;;;14.18;5.93;;;;;;;;;;5053957;28;20191;-70
2022/03/11 01:23:46;;;;;;;14.07;6.25;;;;;;;;;;5054228;28;20054;-71
2022/03/11 01:26:31;;;;;;;12.32;6.75;;;;;;;;;;5053021;28;20640;-70
2022/03/11 01:29:16;;;;;;;11.57;7.13;;;;;;;;;;5053070;28;20046;-64
2022/03/11 01:32:02;;;;;;;15.55;7.13;;;;;;;;;;5052916;28;20033;-64
2022/03/11 01:34:47;;;;;;;10.57;6.15;;;;;;;;;;5054318;28;20121;-66
2022/03/11 01:37:32;;;;;;;12.13;6.47;;;;;;;;;;5051429;28;20062;-64
2022/03/11 01:40:18;;;;;;;13.40;6.72;;;;;;;;;;5039990;28;20046;-63
2022/03/11 01:43:03;;;;;;;13.02;7.88;;;;;;;;;;5059363;28;20373;-63
2022/03/11 01:45:48;;;;;;;13.23;6.72;;;;;;;;;;5048250;28;20033;-62
2022/03/11 01:48:33;;;;;;;14.60;6.10;;;;;;;;;;5040508;28;20510;-68
2022/03/11 01:51:19;;;;;;;15.10;8.02;;;;;;;;;;5051194;28;20112;-68
2022/03/11 01:54:04;;;;;;;12.27;7.75;;;;;;;;;;5051775;28;20025;-67
2022/03/11 01:56:51;;;;;;;12.40;7.22;;;;;;;;;;5053348;28;20058;-68
2022/03/11 01:59:36;;;;;;;16.90;8.38;;;;;;;;;;5051868;28;20288;-69
2022/03/11 02:02:21;;;;;;;15.55;8.57;;;;;;;;;;5067139;28;20067;-68
2022/03/11 02:05:06;;;;;;;12.93;8.23;;;;;;;;;;5052435;28;20102;-63
2022/03/11 02:07:52;;;;;;;13.75;8.13;;;;;;;;;;5047080;28;20029;-64
2022/03/11 02:10:38;;;;;;;15.82;8.73;;;;;;;;;;5049820;28;20060;-62
2022/03/11 02:13:23;;;;;;;13.23;8.23;;;;;;;;;;5052283;28;20218;-62
2022/03/11 02:16:10;;;;;;;15.05;8.57;;;;;;;;;;5053028;28;20538;-62
2022/03/11 02:18:56;;;;;;;14.77;8.98;;;;;;;;;;5053189;28;20029;-65
2022/03/11 02:21:43;;;;;;;13.77;8.13;;;;;;;;;;5058329;28;20037;-63
2022/03/11 02:24:28;;;;;;;15.65;8.32;;;;;;;;;;5051746;28;20043;-62
2022/03/11 02:27:13;;;;;;;18.58;8.80;;;;;;;;;;5049933;28;20129;-66
2022/03/11 02:29:59;;;;;;;17.83;8.45;;;;;;;;;;5055077;28;20025;-66
2022/03/11 02:32:44;;;;;;;13.77;9.07;;;;;;;;;;5066363;28;20127;-66
2022/03/11 02:35:30;;;;;;;15.63;9.63;;;;;;;;;;5041393;28;20033;-65
2022/03/11 02:38:15;;;;;;;18.50;9.65;;;;;;;;;;5048900;28;20025;-63
2022/03/11 02:41:00;;;;;;;17.60;10.75;;;;;;;;;;5065472;28;20071;-62
2022/03/11 02:43:46;;;;;;;16.05;10.23;;;;;;;;;;5052643;28;20040;-62
2022/03/11 02:46:32;;;;;;;16.25;10.45;;;;;;;;;;5051766;28;20430;-63
2022/03/11 02:49:17;;;;;;;17.02;11.40;;;;;;;;;;5052970;28;20025;-61
2022/03/11 02:52:02;;;;;;;16.40;10.60;;;;;;;;;;5057351;28;20243;-62
2022/03/11 02:54:48;;;;;;;19.50;10.52;;;;;;;;;;5053431;28;20040;-63
2022/03/11 02:57:33;;;;;;;18.50;10.43;;;;;;;;;;5040457;28;20392;-62
2022/03/11 03:00:19;;;;;;;16.27;10.18;;;;;;;;;;5051598;28;20024;-62
2022/03/11 03:03:04;;;;;;;19.48;12.38;;;;;;;;;;5052513;28;20044;-63
2022/03/11 03:05:49;;;;;;;17.85;11.15;;;;;;;;;;5050427;28;20036;-64
2022/03/11 03:08:34;;;;;;;21.08;12.43;;;;;;;;;;5052543;28;20029;-63
2022/03/11 03:11:20;;;;;;;21.60;12.27;;;;;;;;;;5051243;28;20020;-63
2022/03/11 03:14:05;;;;;;;19.27;11.93;;;;;;;;;;5052196;28;20055;-63
2022/03/11 03:16:50;;;;;;;20.83;12.43;;;;;;;;;;5036978;28;20119;-63
2022/03/11 03:19:35;;;;;;;22.60;13.18;;;;;;;;;;5052405;28;20078;-65
2022/03/11 03:22:21;;;;;;;20.75;13.95;;;;;;;;;;5064927;28;20107;-65
2022/03/11 03:25:07;;;;;;;19.45;12.52;;;;;;;;;;5051152;28;20043;-67
2022/03/11 03:27:53;;;;;;;18.58;11.77;;;;;;;;;;5050957;28;20102;-62
2022/03/11 03:30:38;;;;;;;21.10;13.52;;;;;;;;;;5051654;28;20507;-63
2022/03/11 03:33:23;;;;;;;20.15;12.63;;;;;;;;;;5051431;28;20040;-65
2022/03/11 03:36:08;;;;;;;20.70;11.88;;;;;;;;;;5051840;28;20482;-71
2022/03/11 03:38:54;;;;;;;21.17;13.35;;;;;;;;;;5049935;28;20333;-64
2022/03/11 03:41:39;;;;;;;21.67;12.68;;;;;;;;;;5052442;28;20029;-63
2022/03/11 03:44:24;;;;;;;21.55;13.25;;;;;;;;;;5051623;28;20021;-63
2022/03/11 03:47:10;;;;;;;23.08;13.00;;;;;;;;;;5050779;28;20570;-66
2022/03/11 03:49:55;;;;;;;21.95;12.95;;;;;;;;;;5022798;28;20527;-64
2022/03/11 03:52:41;;;;;;;21.10;13.43;;;;;;;;;;5059812;28;20383;-64
2022/03/11 03:55:26;;;;;;;24.85;14.48;;;;;;;;;;5055258;28;20085;-64
2022/03/11 03:58:11;;;;;;;22.70;14.15;;;;;;;;;;5053871;28;20056;-72
2022/03/11 04:00:56;;;;;;;26.10;15.43;;;;;;;;;;5051910;28;20037;-73
2022/03/11 04:03:42;;;;;;;22.70;13.05;;;;;;;;;;5051184;28;20132;-71
2022/03/11 04:06:30;;;;;;;22.73;15.95;;;;;;;;;;5051492;28;20387;-72
2022/03/11 04:09:15;;;;;;;23.42;13.93;;;;;;;;;;5051210;28;20025;-74
2022/03/11 04:12:00;;;;;;;21.00;14.90;;;;;;;;;;5058371;28;20123;-73
2022/03/11 04:14:46;;;;;;;22.48;13.80;;;;;;;;;;5051159;28;20572;-64
2022/03/11 04:17:31;;;;;;;23.70;14.00;;;;;;;;;;5053636;28;20040;-64
2022/03/11 04:20:17;;;;;;;23.23;14.07;;;;;;;;;;5053948;28;20028;-68
2022/03/11 04:23:02;;;;;;;23.05;13.82;;;;;;;;;;5055398;28;20032;-64
2022/03/11 04:25:48;;;;;;;23.65;15.25;;;;;;;;;;5053870;28;20032;-66
2022/03/11 04:28:33;;;;;;;29.42;15.27;;;;;;;;;;5062325;28;20052;-68
2022/03/11 04:31:18;;;;;;;23.35;14.95;;;;;;;;;;5041661;28;20153;-64
2022/03/11 04:34:04;;;;;;;28.63;16.67;;;;;;;;;;5054087;28;20430;-66
2022/03/11 04:36:49;;;;;;;26.48;15.73;;;;;;;;;;5055045;28;20044;-64
2022/03/11 04:39:34;;;;;;;24.38;15.45;;;;;;;;;;5054102;28;20398;-64
2022/03/11 04:42:20;;;;;;;22.50;15.48;;;;;;;;;;5054593;28;20020;-65
2022/03/11 04:45:05;;;;;;;29.27;17.05;;;;;;;;;;5054041;28;20050;-63
2022/03/11 04:47:51;;;;;;;29.00;16.00;;;;;;;;;;5060526;28;20040;-64
2022/03/11 04:50:36;;;;;;;36.92;17.48;;;;;;;;;;5038788;28;20090;-70
2022/03/11 04:53:21;;;;;;;25.15;15.88;;;;;;;;;;5041319;28;20109;-67
2022/03/11 04:56:07;;;;;;;27.45;17.52;;;;;;;;;;5053995;28;20074;-67
2022/03/11 04:58:52;;;;;;;29.20;17.38;;;;;;;;;;5040570;28;20041;-64
2022/03/11 05:01:37;;;;;;;26.35;17.05;;;;;;;;;;5059975;28;20099;-65
2022/03/11 05:04:22;;;;;;;30.30;18.23;;;;;;;;;;5052228;28;20036;-66
2022/03/11 05:07:07;;;;;;;30.65;16.63;;;;;;;;;;5053042;28;20534;-65
2022/03/11 05:09:53;;;;;;;25.77;16.25;;;;;;;;;;5054034;28;20496;-67
2022/03/11 05:12:38;;;;;;;26.83;16.65;;;;;;;;;;5054292;28;20037;-70
2022/03/11 05:15:26;;;;;;;26.00;17.30;;;;;;;;;;5053221;28;20527;-69
2022/03/11 05:18:11;;;;;;;25.88;16.80;;;;;;;;;;5053033;28;20469;-69
2022/03/11 05:20:57;;;;;;;24.52;15.32;;;;;;;;;;5051864;28;20036;-70
2022/03/11 05:23:42;;;;;;;25.88;16.48;;;;;;;;;;5048493;28;20495;-70
2022/03/11 05:26:29;;;;;;;28.05;16.80;;;;;;;;;;5052626;28;20024;-62
2022/03/11 05:29:15;;;;;;;28.08;17.30;;;;;;;;;;5052453;28;20025;-64
2022/03/11 05:32:00;;;;;;;27.85;17.95;;;;;;;;;;5056047;28;20261;-68
2022/03/11 05:34:45;;;;;;;32.08;18.45;;;;;;;;;;5054804;28;20085;-70
2022/03/11 05:37:31;;;;;;;26.17;16.88;;;;;;;;;;5050473;28;20020;-68
2022/03/11 05:40:16;;;;;;;30.85;17.60;;;;;;;;;;5053165;28;20028;-67
2022/03/11 05:43:01;;;;;;;28.90;17.50;;;;;;;;;;5047654;28;20039;-68
2022/03/11 05:45:46;;;;;;;33.85;18.58;;;;;;;;;;5044839;28;20075;-66
2022/03/11 05:48:32;;;;;;;27.20;17.30;;;;;;;;;;5037022;28;20029;-70
2022/03/11 05:51:17;;;;;;;23.95;16.13;;;;;;;;;;5033880;28;20217;-70
2022/03/11 05:54:03;;;;;;;30.85;18.40;;;;;;;;;;5052886;28;20085;-70
2022/03/11 05:56:54;;;;;;;29.80;17.50;;;;;;;;;;5039843;28;20032;-71
2022/03/11 05:59:39;;;;;;;25.60;17.40;;;;;;;;;;5053855;28;20036;-70
2022/03/11 06:02:25;;;;;;;29.02;17.67;;;;;;;;;;5052633;28;20609;-70
2022/03/11 06:05:10;;;;;;;27.02;16.67;;;;;;;;;;5061916;28;20119;-73
2022/03/11 06:07:55;;;;;;;31.95;17.73;;;;;;;;;;5052674;28;20046;-66
2022/03/11 06:10:42;;;;;;;25.33;16.55;;;;;;;;;;5054004;28;20043;-65
2022/03/11 06:13:27;;;;;;;37.88;18.83;;;;;;;;;;5039548;28;20040;-63
2022/03/11 06:16:12;;;;;;;28.50;18.02;;;;;;;;;;5053721;28;20115;-64
2022/03/11 06:18:58;;;;;;;32.30;17.65;;;;;;;;;;5042540;28;20052;-65
2022/03/11 06:21:43;;;;;;;29.88;18.27;;;;;;;;;;5053181;28;20539;-63
2022/03/11 06:24:29;;;;;;;27.48;18.63;;;;;;;;;;5052388;28;20039;-68
2022/03/11 06:27:14;;;;;;;31.15;17.52;;;;;;;;;;5048986;28;20464;-64
2022/03/11 06:29:59;;;;;;;31.77;17.63;;;;;;;;;;5024193;28;20033;-64
2022/03/11 06:32:45;;;;;;;27.17;17.63;;;;;;;;;;5033420;28;20067;-65
2022/03/11 06:35:31;;;;;;;30.35;18.95;;;;;;;;;;5049432;28;20063;-62
2022/03/11 06:38:16;;;;;;;35.63;17.92;;;;;;;;;;5056003;28;20043;-64
2022/03/11 06:41:01;;;;;;;29.02;16.60;;;;;;;;;;5044948;28;20024;-67
2022/03/11 06:43:46;;;;;;;27.73;17.05;;;;;;;;;;5052680;28;20040;-63
2022/03/11 06:46:32;;;;;;;27.73;17.15;;;;;;;;;;5033487;28;20036;-63
2022/03/11 06:49:17;;;;;;;24.50;15.90;;;;;;;;;;5035743;28;20066;-67
2022/03/11 06:52:02;;;;;;;31.58;19.85;;;;;;;;;;5053090;28;20491;-64
2022/03/11 06:54:48;;;;;;;28.90;16.90;;;;;;;;;;5052157;28;20082;-63
2022/03/11 06:57:34;;;;;;;26.40;17.95;;;;;;;;;;5052453;28;20044;-62
2022/03/11 07:00:19;;;;;;;28.77;16.38;;;;;;;;;;5031118;28;20025;-68
2022/03/11 07:03:04;;;;;;;23.35;15.57;;;;;;;;;;5033031;28;20044;-72
2022/03/11 07:05:50;;;;;;;25.60;15.10;;;;;;;;;;5042796;28;20085;-71
2022/03/11 07:08:35;;;;;;;23.77;14.60;;;;;;;;;;5061128;28;20025;-72
2022/03/11 07:11:20;;;;;;;24.65;14.40;;;;;;;;;;5051632;28;20033;-70
2022/03/11 07:14:05;;;;;;;25.02;15.10;;;;;;;;;;5052554;28;20395;-70
2022/03/11 07:16:52;;;;;;;21.63;13.98;;;;;;;;;;5051801;28;20032;-69
2022/03/11 07:19:38;;;;;;;25.25;15.40;;;;;;;;;;5052517;28;20384;-67
2022/03/11 07:22:23;;;;;;;24.23;14.23;;;;;;;;;;5051843;28;20036;-69
2022/03/11 07:25:08;;;;;;;21.88;13.43;;;;;;;;;;5038601;28;20036;-68
2022/03/11 07:27:54;;;;;;;21.38;12.60;;;;;;;;;;5032925;28;20591;-68
2022/03/11 07:30:39;;;;;;;21.58;11.38;;;;;;;;;;5032912;28;20033;-70
2022/03/11 07:33:24;;;;;;;20.55;11.20;;;;;;;;;;5052443;28;20440;-70
2022/03/11 07:36:10;;;;;;;18.10;10.45;;;;;;;;;;5051327;28;20024;-63
2022/03/11 07:38:56;;;;;;;19.23;10.45;;;;;;;;;;5053156;28;20033;-70
2022/03/11 07:41:42;;;;;;;16.92;10.40;;;;;;;;;;5056848;28;20040;-70
2022/03/11 07:44:27;;;;;;;17.13;10.25;;;;;;;;;;5038320;28;20037;-70
2022/03/11 07:47:12;;;;;;;20.25;9.88;;;;;;;;;;5051106;28;20032;-70
2022/03/11 07:49:57;;;;;;;17.15;10.73;;;;;;;;;;5052156;28;20492;-71
2022/03/11 07:52:43;;;;;;;16.85;9.88;;;;;;;;;;5053283;28;20032;-72
2022/03/11 07:55:28;;;;;;;18.42;10.60;;;;;;;;;;5056141;28;20025;-70
2022/03/11 07:58:13;;;;;;;17.73;9.63;;;;;;;;;;5054564;28;20043;-67
2022/03/11 08:00:59;;;;;;;18.65;9.75;;;;;;;;;;5056159;28;20040;-67
2022/03/11 08:03:44;;;;;;;23.33;9.60;;;;;;;;;;5055094;28;20024;-67
2022/03/11 08:06:30;;;;;;;17.13;10.07;;;;;;;;;;5056075;28;20406;-67
2022/03/11 08:09:15;;;;;;;13.05;9.20;;;;;;;;;;5054746;28;20024;-66
2022/03/11 08:12:01;;;;;;;19.95;10.55;;;;;;;;;;5061696;28;20333;-69
2022/03/11 08:14:47;;;;;;;16.90;10.32;;;;;;;;;;5037182;28;20075;-67
2022/03/11 08:17:33;;;;;;;16.05;8.77;;;;;;;;;;5036692;28;20025;-61
2022/03/11 08:20:18;;;;;;;17.08;10.20;;;;;;;;;;5055892;28;20029;-63
2022/03/11 08:23:04;;;;;;;17.17;10.77;;;;;;;;;;5054490;28;20115;-62
2022/03/11 08:25:49;;;;;;;16.40;10.50;;;;;;;;;;5055454;28;20043;-63
2022/03/11 08:28:34;;;;;;;16.42;10.43;;;;;;;;;;5054250;28;20028;-63
2022/03/11 08:31:20;;;;;;;16.80;10.50;;;;;;;;;;5055400;28;20055;-64
2022/03/11 08:34:06;;;;;;;14.55;9.93;;;;;;;;;;5054200;28;20037;-70
2022/03/11 08:36:52;;;;;;;14.75;10.45;;;;;;;;;;5054985;28;20036;-68
2022/03/11 08:39:37;;;;;;;20.60;11.45;;;;;;;;;;5046647;28;20474;-68
2022/03/11 08:42:22;;;;;;;18.05;10.98;;;;;;;;;;5055111;28;20499;-69
2022/03/11 08:45:10;;;;;;;15.85;11.07;;;;;;;;;;5049068;28;20049;-68
2022/03/11 08:47:55;;;;;;;17.58;10.82;;;;;;;;;;5035605;28;20458;-69
2022/03/11 08:50:40;;;;;;;18.13;10.43;;;;;;;;;;5051665;28;20037;-68
2022/03/11 08:53:25;;;;;;;17.40;11.30;;;;;;;;;;5055464;28;20102;-73
2022/03/11 08:56:11;;;;;;;15.00;10.38;;;;;;;;;;5035164;28;20036;-74
2022/03/11 08:58:56;;;;;;;16.23;10.70;;;;;;;;;;5034579;28;20449;-72
2022/03/11 09:01:41;;;;;;;15.82;10.80;;;;;;;;;;5054776;28;20036;-72
2022/03/11 09:04:26;;;;;;;15.98;10.75;;;;;;;;;;5052517;28;20402;-74
2022/03/11 09:07:12;;;;;;;19.23;10.23;;;;;;;;;;5054323;28;20028;-64
2022/03/11 09:09:58;;;;;;;16.25;11.20;;;;;;;;;;5053406;28;20387;-64
2022/03/11 09:12:44;;;;;;;15.85;11.20;;;;;;;;;;5054732;28;20115;-72
2022/03/11 09:15:29;;;;;;;17.42;11.48;;;;;;;;;;5056872;28;20085;-73
2022/03/11 09:18:15;;;;;;;15.43;10.68;;;;;;;;;;5058147;28;20317;-71
2022/03/11 09:21:01;;;;;;;16.65;11.20;;;;;;;;;;5053461;28;20443;-77
2022/03/11 09:23:47;;;;;;;15.02;10.75;;;;;;;;;;5054669;28;20086;-74
2022/03/11 09:26:32;;;;;;;14.93;10.30;;;;;;;;;;5054061;28;20041;-73
2022/03/11 09:29:18;;;;;;;18.90;11.05;;;;;;;;;;5040628;28;20119;-67
2022/03/11 09:32:03;;;;;;;19.38;12.15;;;;;;;;;;5053454;28;20537;-65
2022/03/11 09:34:49;;;;;;;16.20;10.77;;;;;;;;;;5054336;28;20039;-70
2022/03/11 09:37:34;;;;;;;15.70;10.60;;;;;;;;;;5052838;28;20098;-70
2022/03/11 09:40:19;;;;;;;16.83;10.07;;;;;;;;;;5054163;28;20391;-69
2022/03/11 09:43:05;;;;;;;17.95;10.25;;;;;;;;;;5053955;28;20495;-66
2022/03/11 09:45:50;;;;;;;16.73;10.98;;;;;;;;;;5052979;28;20037;-73
2022/03/11 09:48:36;;;;;;;19.55;10.90;;;;;;;;;;5062250;28;20327;-65
2022/03/11 09:51:21;;;;;;;14.00;9.20;;;;;;;;;;5038967;28;20036;-64
2022/03/11 09:54:07;;;;;;;15.27;10.18;;;;;;;;;;5054027;28;20062;-65
2022/03/11 09:56:53;;;;;;;19.13;10.52;;;;;;;;;;5052899;28;20035;-63
2022/03/11 09:59:38;;;;;;;13.30;9.02;;;;;;;;;;5052822;28;20073;-65
2022/03/11 10:02:24;;;;;;;15.68;9.55;;;;;;;;;;5043230;28;20498;-69
2022/03/11 10:05:09;;;;;;;15.43;9.98;;;;;;;;;;5053834;28;20047;-70
2022/03/11 10:07:59;;;;;;;14.63;9.73;;;;;;;;;;5052626;28;20050;-68
2022/03/11 10:10:44;;;;;;;14.50;9.77;;;;;;;;;;5053635;28;20035;-70
2022/03/11 10:13:36;;;;;;;14.50;9.32;;;;;;;;;;5052211;28;20475;-68
2022/03/11 10:16:25;;;;;;;13.30;10.02;;;;;;;;;;5053184;28;20036;-68
2022/03/11 10:19:13;;;;;;;16.02;9.25;;;;;;;;;;5054096;28;20036;-70
2022/03/11 10:21:59;;;;;;;14.85;9.35;;;;;;;;;;5057691;28;20584;-68
2022/03/11 10:24:44;;;;;;;14.40;9.40;;;;;;;;;;5053440;28;20151;-65
2022/03/11 10:27:29;;;;;;;13.15;8.80;;;;;;;;;;5080392;28;20028;-65
2022/03/11 10:30:15;;;;;;;13.45;9.93;;;;;;;;;;5053494;28;20035;-63
2022/03/11 10:33:02;;;;;;;11.98;8.77;;;;;;;;;;5052529;28;20063;-66
2022/03/11 10:35:48;;;;;;;13.55;9.18;;;;;;;;;;5053441;28;20029;-67
2022/03/11 10:38:36;;;;;;;16.45;9.40;;;;;;;;;;5032645;28;20032;-65
2022/03/11 10:41:30;;;;;;;12.38;8.88;;;;;;;;;;5053508;28;20117;-68
2022/03/11 10:44:19;;;;;;;12.75;9.10;;;;;;;;;;5043077;28;20114;-68
2022/03/11 10:47:21;;;;;;;11.70;8.93;;;;;;;;;;5033541;28;20032;-68
2022/03/11 10:50:07;;;;;;;14.13;9.18;;;;;;;;;;5048582;28;20036;-69
2022/03/11 10:52:53;;;;;;;12.35;8.98;;;;;;;;;;5061238;28;20308;-68
2022/03/11 10:55:39;;;;;;;13.23;9.05;;;;;;;;;;5052194;28;20040;-69
2022/03/11 10:58:27;;;;;;;16.42;9.77;;;;;;;;;;5052334;28;20518;-66
2022/03/11 11:01:13;;;;;;;13.73;9.23;;;;;;;;;;5046912;28;20055;-72
2022/03/11 11:03:59;;;;;;;12.30;8.85;;;;;;;;;;5047544;28;20513;-71
2022/03/11 11:06:45;;;;;;;12.63;8.40;;;;;;;;;;5039189;28;20108;-72
2022/03/11 11:09:30;;;;;;;13.50;9.07;;;;;;;;;;5065886;28;20028;-73
2022/03/11 11:12:16;;;;;;;14.02;8.73;;;;;;;;;;5052888;28;20498;-71
2022/03/11 11:15:02;;;;;;;15.95;10.25;;;;;;;;;;5052212;28;20085;-72
2022/03/11 11:17:49;;;;;;;15.93;9.60;;;;;;;;;;5053118;28;20108;-66
2022/03/11 11:20:39;;;;;;;17.08;10.02;;;;;;;;;;5032706;28;20033;-64
2022/03/11 11:23:25;;;;;;;14.40;9.88;;;;;;;;;;5042155;28;20142;-65
2022/03/11 11:26:10;;;;;;;14.50;9.52;;;;;;;;;;5055410;28;20375;-64
2022/03/11 11:28:57;;;;;;;14.65;9.77;;;;;;;;;;5056909;28;20036;-64
2022/03/11 11:31:43;;;;;;;13.50;9.20;;;;;;;;;;5041025;28;20033;-63
2022/03/11 11:34:33;;;;;;;14.73;9.82;;;;;;;;;;5036710;28;20040;-67
2022/03/11 11:37:38;;;;;;;15.93;9.90;;;;;;;;;;5055066;28;20052;-70
2022/03/11 11:40:25;;;;;;;13.95;10.10;;;;;;;;;;5055399;28;20127;-66
2022/03/11 11:43:13;;;;;;;17.70;10.13;;;;;;;;;;5042683;28;20119;-67
2022/03/11 11:46:01;;;;;;;15.05;9.82;;;;;;;;;;5055246;28;20036;-66
2022/03/11 11:48:50;;;;;;;14.60;9.80;;;;;;;;;;5056577;28;20091;-67
2022/03/11 11:51:35;;;;;;;18.48;11.15;;;;;;;;;;5055204;28;20020;-66
2022/03/11 11:54:32;;;;;;;15.23;10.40;;;;;;;;;;5056407;28;20028;-66
2022/03/11 11:57:18;;;;;;;14.73;10.13;;;;;;;;;;5043509;28;20048;-74
2022/03/11 12:00:08;;;;;;;15.98;9.45;;;;;;;;;;5050051;28;20553;-72
2022/03/11 12:02:54;;;;;;;14.98;10.05;;;;;;;;;;5055520;28;20076;-75
2022/03/11 12:05:47;;;;;;;21.02;10.95;;;;;;;;;;5056199;28;20074;-74
2022/03/11 12:08:37;;;;;;;18.38;10.45;;;;;;;;;;5055004;28;20620;-74
2022/03/11 12:11:42;;;;;;;16.63;10.50;;;;;;;;;;5055737;28;20036;-70
2022/03/11 12:14:29;;;;;;;16.40;9.95;;;;;;;;;;5056053;28;20032;-67
2022/03/11 12:17:14;;;;;;;16.45;10.60;;;;;;;;;;5054887;28;20055;-66
2022/03/11 12:20:19;;;;;;;15.75;10.85;;;;;;;;;;5055750;28;20108;-66
2022/03/11 12:23:09;;;;;;;14.60;9.82;;;;;;;;;;5054442;28;20115;-69
2022/03/11 12:25:58;;;;;;;15.60;10.77;;;;;;;;;;5055480;28;21328;-66
2022/03/11 12:28:44;;;;;;;;;;;;;;;;;;5063385;28;20040;-66
2022/03/11 12:31:30;;;;;;;15.52;10.80;;;;;;;;;;5055544;28;20407;-66
2022/03/11 12:34:15;;;;;;;13.98;10.65;;;;;;;;;;5055088;28;20036;-68
2022/03/11 12:37:00;;;;;;;16.50;10.45;;;;;;;;;;5055545;28;20032;-69
2022/03/11 12:39:46;;;;;;;14.70;9.48;;;;;;;;;;5054645;28;20043;-65
2022/03/11 12:42:41;;;;;;;16.52;10.75;;;;;;;;;;5069523;28;20371;-67
2022/03/11 12:45:34;;;;;;;20.10;11.30;;;;;;;;;;5035499;28;20047;-67
2022/03/11 12:48:20;;;;;;;19.15;11.15;;;;;;;;;;5052515;28;20085;-69
2022/03/11 12:51:18;;;;;;;17.58;10.20;;;;;;;;;;5054606;28;20047;-72
2022/03/11 12:54:13;;;;;;;14.43;10.30;;;;;;;;;;5054105;28;20064;-65
2022/03/11 12:56:58;;;;;;;14.23;10.25;;;;;;;;;;5055162;28;20108;-66
2022/03/11 12:59:45;;;;;;;15.25;10.52;;;;;;;;;;5057953;28;20343;-66
2022/03/11 13:02:31;;;;;;;17.35;10.68;;;;;;;;;;5043606;28;20060;-68
2022/03/11 13:05:17;;;;;;;18.58;11.05;;;;;;;;;;5053767;28;20772;-65
2022/03/11 13:08:06;;;;;;;15.30;10.73;;;;;;;;;;5055181;28;20037;-71
2022/03/11 13:10:52;;;;;;;15.63;10.25;;;;;;;;;;5053779;28;20479;-66
2022/03/11 13:13:38;;;;;;;17.20;11.05;;;;;;;;;;5055104;28;20479;-66
2022/03/11 13:16:23;;;;;;;19.35;10.25;;;;;;;;;;5055298;28;20051;-66
2022/03/11 13:19:08;;;;;;;17.75;11.40;;;;;;;;;;5053607;28;20044;-67
2022/03/11 13:21:54;;;;;;;14.50;9.95;;;;;;;;;;5054743;28;20422;-65
2022/03/11 13:24:39;;;;;;;18.67;10.60;;;;;;;;;;5053562;28;20028;-66
2022/03/11 13:27:24;;;;;;;13.95;10.23;;;;;;;;;;5054734;28;20037;-73
2022/03/11 13:30:10;;;;;;;14.85;10.20;;;;;;;;;;5053909;28;20054;-71
2022/03/11 13:32:55;;;;;;;16.50;11.10;;;;;;;;;;5062717;28;20072;-69
2022/03/11 13:35:41;;;;;;;15.23;10.30;;;;;;;;;;5053214;28;20037;-70
2022/03/11 13:38:40;;;;;;;18.08;10.55;;;;;;;;;;5054094;28;20032;-71
2022/03/11 13:41:27;;;;;;;15.27;9.65;;;;;;;;;;5053281;28;20505;-73
2022/03/11 13:44:23;;;;;;;19.00;10.98;;;;;;;;;;5054392;28;20039;-65
2022/03/11 13:47:14;;;;;;;20.20;10.68;;;;;;;;;;5045355;28;20495;-67
2022/03/11 13:50:07;;;;;;;18.52;11.20;;;;;;;;;;5040003;28;20397;-65
2022/03/11 13:52:56;;;;;;;20.27;10.93;;;;;;;;;;5034162;28;20492;-65
2022/03/11 13:55:41;;;;;;;;;;;;;;;;;;5036584;28;20195;-66
2022/03/11 13:58:27;;;;;;;18.83;10.75;;;;;;;;;;5039731;28;20212;-66
2022/03/11 14:01:12;;;;;;;15.10;10.45;;;;;;;;;;5024581;28;20043;-66
2022/03/11 14:03:58;;;;;;;16.27;10.38;;;;;;;;;;5059282;28;20129;-66
2022/03/11 14:06:43;;;;;;;19.60;10.25;;;;;;;;;;5054347;28;20071;-65
2022/03/11 14:09:28;;;;;;;15.93;9.90;;;;;;;;;;5053844;28;20068;-65
2022/03/11 14:12:22;;;;;;;21.25;11.77;;;;;;;;;;5052753;28;20029;-68
2022/03/11 14:15:08;;;;;;;16.02;10.13;;;;;;;;;;5053618;28;20047;-65
2022/03/11 14:17:53;;;;;;;15.63;10.68;;;;;;;;;;5052213;28;20501;-66
2022/03/11 14:20:43;;;;;;;16.52;10.63;;;;;;;;;;5053503;28;20051;-66
2022/03/11 14:23:28;;;;;;;17.73;11.18;;;;;;;;;;5052392;28;20479;-70
2022/03/11 14:26:13;;;;;;;17.45;10.68;;;;;;;;;;5053599;28;20056;-72
2022/03/11 14:28:59;;;;;;;16.80;11.18;;;;;;;;;;5053288;28;20031;-69
2022/03/11 14:31:44;;;;;;;20.65;10.65;;;;;;;;;;5053809;28;20029;-71
2022/03/11 14:34:29;;;;;;;19.42;11.32;;;;;;;;;;5053763;28;20097;-72
2022/03/11 14:37:14;;;;;;;17.08;10.77;;;;;;;;;;5059741;28;20110;-71
2022/03/11 14:40:00;;;;;;;19.58;10.70;;;;;;;;;;5053203;28;20474;-65
2022/03/11 14:42:46;;;;;;;17.77;11.20;;;;;;;;;;5038039;28;20029;-64
2022/03/11 14:45:32;;;;;;;19.35;11.68;;;;;;;;;;5019540;28;20033;-65
2022/03/11 14:48:17;;;;;;;16.00;10.50;;;;;;;;;;5053136;28;20036;-63
2022/03/11 14:51:03;;;;;;;16.92;10.48;;;;;;;;;;5052689;28;20085;-65
2022/03/11 14:53:48;;;;;;;19.33;11.38;;;;;;;;;;5051645;28;20541;-64
2022/03/11 14:56:34;;;;;;;16.80;10.38;;;;;;;;;;5052800;28;20085;-63
2022/03/11 14:59:20;;;;;;;16.33;11.32;;;;;;;;;;5047786;28;20112;-67
2022/03/11 15:02:05;;;;;;;18.95;11.38;;;;;;;;;;5033146;28;20021;-65
2022/03/11 15:04:51;;;;;;;16.95;11.25;;;;;;;;;;5055928;28;20029;-64
2022/03/11 15:07:37;;;;;;;22.63;10.70;;;;;;;;;;5064437;28;20032;-66
2022/03/11 15:10:22;;;;;;;20.65;11.57;;;;;;;;;;5063547;28;20567;-64
2022/03/11 15:13:07;;;;;;;15.75;12.38;;;;;;;;;;5032965;28;20476;-66
2022/03/11 15:15:52;;;;;;;16.00;10.70;;;;;;;;;;5052504;28;20036;-71
2022/03/11 15:18:38;;;;;;;18.15;12.32;;;;;;;;;;5052295;28;20039;-66
2022/03/11 15:21:23;;;;;;;17.88;11.45;;;;;;;;;;5052511;28;20029;-65
2022/03/11 15:24:09;;;;;;;16.58;11.35;;;;;;;;;;5051554;28;22133;-64
2022/03/11 15:26:54;;;;;;;17.55;11.10;;;;;;;;;;5032670;28;20235;-64
2022/03/11 15:29:40;;;;;;;19.50;11.02;;;;;;;;;;5037051;28;20594;-64
2022/03/11 15:32:25;;;;;;;16.42;10.77;;;;;;;;;;5038434;28;20607;-65
2022/03/11 15:35:10;;;;;;;19.38;11.80;;;;;;;;;;5051343;28;20127;-65
2022/03/11 15:37:56;;;;;;;17.10;11.55;;;;;;;;;;5052280;28;20169;-63
2022/03/11 15:40:41;;;;;;;18.10;11.25;;;;;;;;;;5059491;28;20036;-64
2022/03/11 15:43:26;;;;;;;18.67;12.00;;;;;;;;;;5052675;28;20043;-65
2022/03/11 15:46:17;;;;;;;19.08;11.88;;;;;;;;;;5040014;28;20082;-65
2022/03/11 15:49:02;;;;;;;16.40;11.38;;;;;;;;;;5032929;28;20025;-65
2022/03/11 15:51:48;;;;;;;18.58;11.40;;;;;;;;;;5042568;28;20044;-64
2022/03/11 15:54:33;;;;;;;20.38;11.38;;;;;;;;;;5046722;28;20075;-63
2022/03/11 15:57:18;;;;;;;15.95;11.10;;;;;;;;;;5051956;28;20063;-65
2022/03/11 16:00:04;;;;;;;18.08;11.27;;;;;;;;;;5052339;28;20560;-66
2022/03/11 16:02:51;;;;;;;16.33;11.60;;;;;;;;;;5032417;28;20040;-64
2022/03/11 16:05:38;;;;;;;19.30;11.73;;;;;;;;;;5047085;28;20120;-63
2022/03/11 16:08:23;;;;;;;16.23;10.43;;;;;;;;;;5038343;28;20408;-63
2022/03/11 16:11:08;;;;;;;20.30;11.13;;;;;;;;;;5052877;28;20032;-68